sensor_id;sensor_type;location;lat;lon;timestamp;pressure;altitude;pressure_sealevel;temperature;humidity
23241;BME280;11789;53.482;9.862;2023-05-19T00:01:49;102938.84;;;7.97;80.10
23241;BME280;11789;53.482;9.862;2023-05-19T00:04:17;102939.53;;;7.93;80.15
23241;BME280;11789;53.482;9.862;2023-05-19T00:06:42;102934.63;;;7.79;80.27
23241;BME280;11789;53.482;9.862;2023-05-19T00:09:11;102938.78;;;7.76;81.03
23241;BME280;11789;53.482;9.862;2023-05-19T00:11:38;102931.84;;;7.75;81.33
23241;BME280;11789;53.482;9.862;2023-05-19T00:14:08;102937.34;;;7.63;81.72
23241;BME280;11789;53.482;9.862;2023-05-19T00:16:34;102932.00;;;7.59;82.29
23241;BME280;11789;53.482;9.862;2023-05-19T00:19:03;102928.28;;;7.52;82.20
23241;BME280;11789;53.482;9.862;2023-05-19T00:21:28;102930.38;;;7.41;82.31
23241;BME280;11789;53.482;9.862;2023-05-19T00:23:55;102936.72;;;7.30;82.84
23241;BME280;11789;53.482;9.862;2023-05-19T00:26:20;102935.09;;;7.32;83.49
23241;BME280;11789;53.482;9.862;2023-05-19T00:28:47;102926.44;;;7.49;nan
23241;BME280;11789;53.482;9.862;2023-05-19T00:31:13;102925.50;;;7.47;83.05
23241;BME280;11789;53.482;9.862;2023-05-19T00:33:38;102925.22;;;7.41;83.33
23241;BME280;11789;53.482;9.862;2023-05-19T00:36:04;102931.87;;;7.36;83.42
23241;BME280;11789;53.482;9.862;2023-05-19T00:38:30;102924.41;;;7.42;83.47
23241;BME280;11789;53.482;9.862;2023-05-19T00:40:56;102922.00;;;7.45;82.96
23241;BME280;11789;53.482;9.862;2023-05-19T00:43:22;102917.50;;;7.41;83.09
23241;BME280;11789;53.482;9.862;2023-05-19T00:45:47;102913.25;;;7.42;83.70
23241;BME280;11789;53.482;9.862;2023-05-19T00:48:13;102912.22;;;7.38;83.58
23241;BME280;11789;53.482;9.862;2023-05-19T00:50:39;102912.75;;;7.31;83.68
23241;BME280;11789;53.482;9.862;2023-05-19T00:53:06;102913.47;;;7.28;83.91
23241;BME280;11789;53.482;9.862;2023-05-19T00:55:32;102909.91;;;7.25;84.08
23241;BME280;11789;53.482;9.862;2023-05-19T00:57:58;102906.53;;;7.26;84.45
23241;BME280;11789;53.482;9.862;2023-05-19T01:00:24;102911.72;;;7.27;84.69
23241;BME280;11789;53.482;9.862;2023-05-19T01:02:50;102916.34;;;7.35;85.14
23241;BME280;11789;53.482;9.862;2023-05-19T01:05:16;102923.16;;;7.34;84.87
23241;BME280;11789;53.482;9.862;2023-05-19T01:07:42;102920.22;;;7.25;84.93
23241;BME280;11789;53.482;9.862;2023-05-19T01:10:08;102917.47;;;7.22;85.14
23241;BME280;11789;53.482;9.862;2023-05-19T01:12:34;102918.09;;;7.16;85.61
23241;BME280;11789;53.482;9.862;2023-05-19T01:15:01;102922.63;;;7.22;85.98
23241;BME280;11789;53.482;9.862;2023-05-19T01:17:44;102926.00;;;7.21;85.58
23241;BME280;11789;53.482;9.862;2023-05-19T01:20:37;102912.56;;;7.26;85.48
23241;BME280;11789;53.482;9.862;2023-05-19T01:31:14;102917.22;;;7.16;85.07
23241;BME280;11789;53.482;9.862;2023-05-19T01:33:42;102922.19;;;7.13;85.44
23241;BME280;11789;53.482;9.862;2023-05-19T01:36:09;102924.56;;;7.08;85.44
23241;BME280;11789;53.482;9.862;2023-05-19T01:38:37;102917.66;;;7.07;85.87
23241;BME280;11789;53.482;9.862;2023-05-19T01:41:05;102914.19;;;7.07;85.98
23241;BME280;11789;53.482;9.862;2023-05-19T01:43:32;102919.19;;;7.03;85.86
23241;BME280;11789;53.482;9.862;2023-05-19T01:45:57;102915.91;;;7.06;86.28
23241;BME280;11789;53.482;9.862;2023-05-19T01:48:24;102926.91;;;7.03;86.25
23241;BME280;11789;53.482;9.862;2023-05-19T01:50:50;102914.59;;;6.96;86.53
23241;BME280;11789;53.482;9.862;2023-05-19T01:53:16;102925.47;;;6.91;87.03
23241;BME280;11789;53.482;9.862;2023-05-19T01:55:53;102926.19;;;6.88;87.08
23241;BME280;11789;53.482;9.862;2023-05-19T02:01:16;102926.84;;;6.84;87.33
23241;BME280;11789;53.482;9.862;2023-05-19T02:12:19;102932.81;;;6.83;87.97
23241;BME280;11789;53.482;9.862;2023-05-19T02:15:10;102932.31;;;6.90;88.18
23241;BME280;11789;53.482;9.862;2023-05-19T02:17:39;102928.91;;;6.91;87.48
23241;BME280;11789;53.482;9.862;2023-05-19T02:20:12;102931.03;;;7.00;86.53
23241;BME280;11789;53.482;9.862;2023-05-19T02:22:37;102927.72;;;7.02;86.54
23241;BME280;11789;53.482;9.862;2023-05-19T02:25:03;102927.72;;;7.02;86.80
23241;BME280;11789;53.482;9.862;2023-05-19T02:27:29;102921.53;;;6.99;87.06
23241;BME280;11789;53.482;9.862;2023-05-19T02:29:55;102915.75;;;7.03;87.67
23241;BME280;11789;53.482;9.862;2023-05-19T02:32:20;102917.66;;;7.07;87.12
23241;BME280;11789;53.482;9.862;2023-05-19T02:34:46;102909.78;;;7.04;87.46
23241;BME280;11789;53.482;9.862;2023-05-19T02:37:13;102914.59;;;6.96;87.60
23241;BME280;11789;53.482;9.862;2023-05-19T02:39:39;102911.84;;;6.93;87.61
23241;BME280;11789;53.482;9.862;2023-05-19T02:42:05;102908.41;;;6.93;87.70
23241;BME280;11789;53.482;9.862;2023-05-19T02:44:30;102908.41;;;6.93;87.81
23241;BME280;11789;53.482;9.862;2023-05-19T02:46:56;102912.94;;;6.98;87.85
23241;BME280;11789;53.482;9.862;2023-05-19T02:49:21;102914.13;;;7.05;87.83
23241;BME280;11789;53.482;9.862;2023-05-19T02:51:47;102910.97;;;7.11;87.65
23241;BME280;11789;53.482;9.862;2023-05-19T02:54:12;102912.88;;;7.15;87.67
23241;BME280;11789;53.482;9.862;2023-05-19T02:56:37;102904.06;;;7.29;87.56
23241;BME280;11789;53.482;9.862;2023-05-19T02:59:03;102905.53;;;7.42;86.99
23241;BME280;11789;53.482;9.862;2023-05-19T03:01:28;102905.94;;;7.51;86.66
23241;BME280;11789;53.482;9.862;2023-05-19T03:03:54;102909.66;;;7.58;86.39
23241;BME280;11789;53.482;9.862;2023-05-19T03:06:19;102909.81;;;7.61;86.11
23241;BME280;11789;53.482;9.862;2023-05-19T03:08:47;102902.19;;;7.64;85.93
23241;BME280;11789;53.482;9.862;2023-05-19T03:11:13;102902.19;;;7.64;86.26
23241;BME280;11789;53.482;9.862;2023-05-19T03:13:39;102904.78;;;7.64;86.74
23241;BME280;11789;53.482;9.862;2023-05-19T03:16:05;102903.00;;;7.63;87.16
23241;BME280;11789;53.482;9.862;2023-05-19T03:18:33;102902.19;;;7.64;87.13
23241;BME280;11789;53.482;9.862;2023-05-19T03:20:58;102902.19;;;7.64;86.80
23241;BME280;11789;53.482;9.862;2023-05-19T03:23:24;102900.91;;;7.54;86.96
23241;BME280;11789;53.482;9.862;2023-05-19T03:25:50;102892.72;;;7.43;87.39
23241;BME280;11789;53.482;9.862;2023-05-19T03:28:18;102895.97;;;7.39;88.39
23241;BME280;11789;53.482;9.862;2023-05-19T03:30:44;102890.09;;;7.42;89.14
23241;BME280;11789;53.482;9.862;2023-05-19T03:33:09;102895.91;;;7.38;89.44
23241;BME280;11789;53.482;9.862;2023-05-19T03:35:35;102885.59;;;7.38;90.18
23241;BME280;11789;53.482;9.862;2023-05-19T03:38:00;102890.13;;;7.43;90.78
23241;BME280;11789;53.482;9.862;2023-05-19T03:40:26;102893.81;;;7.48;90.65
23241;BME280;11789;53.482;9.862;2023-05-19T03:42:51;102891.37;;;7.51;90.34
23241;BME280;11789;53.482;9.862;2023-05-19T03:45:18;102895.56;;;7.49;90.43
23241;BME280;11789;53.482;9.862;2023-05-19T03:47:44;102894.81;;;7.52;90.74
23241;BME280;11789;53.482;9.862;2023-05-19T03:50:11;102887.50;;;7.61;90.83
23241;BME280;11789;53.482;9.862;2023-05-19T03:52:36;102894.63;;;7.67;90.97
23241;BME280;11789;53.482;9.862;2023-05-19T03:55:03;102896.44;;;7.69;90.43
23241;BME280;11789;53.482;9.862;2023-05-19T03:57:28;102902.47;;;7.70;90.69
23241;BME280;11789;53.482;9.862;2023-05-19T03:59:54;102897.31;;;7.70;91.08
23241;BME280;11789;53.482;9.862;2023-05-19T04:02:19;102904.97;;;7.68;90.73
23241;BME280;11789;53.482;9.862;2023-05-19T04:04:45;102901.53;;;7.68;90.11
23241;BME280;11789;53.482;9.862;2023-05-19T04:07:10;102904.91;;;7.67;89.82
23241;BME280;11789;53.482;9.862;2023-05-19T04:09:36;102908.97;;;7.62;89.94
23241;BME280;11789;53.482;9.862;2023-05-19T04:12:02;102908.97;;;7.62;90.12
23241;BME280;11789;53.482;9.862;2023-05-19T04:14:27;102914.13;;;7.62;90.12
23241;BME280;11789;53.482;9.862;2023-05-19T04:16:53;102915.69;;;7.58;90.26
23241;BME280;11789;53.482;9.862;2023-05-19T04:19:19;102925.03;;;7.56;90.52
23241;BME280;11789;53.482;9.862;2023-05-19T04:21:44;102925.81;;;7.55;90.83
23241;BME280;11789;53.482;9.862;2023-05-19T04:24:10;102920.78;;;7.57;91.10
23241;BME280;11789;53.482;9.862;2023-05-19T04:26:35;102920.88;;;7.60;91.22
23241;BME280;11789;53.482;9.862;2023-05-19T04:29:03;102921.91;;;7.63;91.40
23241;BME280;11789;53.482;9.862;2023-05-19T04:31:29;102910.88;;;7.66;91.31
23241;BME280;11789;53.482;9.862;2023-05-19T04:33:54;102912.75;;;7.70;91.41
23241;BME280;11789;53.482;9.862;2023-05-19T04:36:20;102915.63;;;7.76;91.51
23241;BME280;11789;53.482;9.862;2023-05-19T04:38:46;102910.59;;;7.79;91.69
23241;BME280;11789;53.482;9.862;2023-05-19T04:41:12;102916.91;;;7.86;91.85
23241;BME280;11789;53.482;9.862;2023-05-19T04:43:38;102917.91;;;7.89;91.80
23241;BME280;11789;53.482;9.862;2023-05-19T04:46:10;102915.25;;;7.88;92.09
23241;BME280;11789;53.482;9.862;2023-05-19T04:48:36;102920.41;;;7.88;92.36
23241;BME280;11789;53.482;9.862;2023-05-19T04:51:01;102923.81;;;7.87;92.43
23241;BME280;11789;53.482;9.862;2023-05-19T04:53:27;102922.13;;;7.87;92.55
23241;BME280;11789;53.482;9.862;2023-05-19T04:55:53;102920.34;;;7.86;92.88
23241;BME280;11789;53.482;9.862;2023-05-19T04:58:19;102911.81;;;7.87;93.03
23241;BME280;11789;53.482;9.862;2023-05-19T05:00:45;102917.16;;;7.92;93.38
23241;BME280;11789;53.482;9.862;2023-05-19T05:03:10;102910.16;;;7.89;93.37
23241;BME280;11789;53.482;9.862;2023-05-19T05:05:38;102919.66;;;7.90;93.56
23241;BME280;11789;53.482;9.862;2023-05-19T05:08:04;102918.97;;;7.94;93.92
23241;BME280;11789;53.482;9.862;2023-05-19T05:10:29;102922.50;;;7.96;94.01
23241;BME280;11789;53.482;9.862;2023-05-19T05:12:55;102917.38;;;7.96;94.10
23241;BME280;11789;53.482;9.862;2023-05-19T05:15:21;102924.38;;;8.00;94.04
23241;BME280;11789;53.482;9.862;2023-05-19T05:17:47;102912.56;;;8.05;94.09
23241;BME280;11789;53.482;9.862;2023-05-19T05:20:13;102924.78;;;8.10;94.12
23241;BME280;11789;53.482;9.862;2023-05-19T05:22:39;102923.22;;;8.13;94.01
23241;BME280;11789;53.482;9.862;2023-05-19T05:25:06;102918.94;;;8.14;93.51
23241;BME280;11789;53.482;9.862;2023-05-19T05:27:31;102910.34;;;8.13;93.52
23241;BME280;11789;53.482;9.862;2023-05-19T05:29:57;102918.91;;;8.12;93.83
23241;BME280;11789;53.482;9.862;2023-05-19T05:32:22;102917.25;;;8.14;94.08
23241;BME280;11789;53.482;9.862;2023-05-19T05:34:49;102918.37;;;8.21;94.35
23241;BME280;11789;53.482;9.862;2023-05-19T05:37:15;102923.66;;;8.24;94.32
23241;BME280;11789;53.482;9.862;2023-05-19T05:39:40;102922.13;;;8.27;94.49
23241;BME280;11789;53.482;9.862;2023-05-19T05:42:06;102919.78;;;8.33;94.39
23241;BME280;11789;53.482;9.862;2023-05-19T05:44:33;102925.22;;;8.40;94.32
23241;BME280;11789;53.482;9.862;2023-05-19T05:47:01;102927.09;;;8.44;94.08
23241;BME280;11789;53.482;9.862;2023-05-19T05:49:26;102930.81;;;8.50;94.18
23241;BME280;11789;53.482;9.862;2023-05-19T05:51:52;102929.47;;;8.60;93.99
23241;BME280;11789;53.482;9.862;2023-05-19T05:54:20;102928.03;;;8.67;93.71
23241;BME280;11789;53.482;9.862;2023-05-19T05:56:46;102931.75;;;8.73;93.54
23241;BME280;11789;53.482;9.862;2023-05-19T05:59:13;102922.50;;;8.78;92.58
23241;BME280;11789;53.482;9.862;2023-05-19T06:01:39;102928.91;;;8.88;92.39
23241;BME280;11789;53.482;9.862;2023-05-19T06:04:06;102927.38;;;8.93;91.66
23241;BME280;11789;53.482;9.862;2023-05-19T06:06:32;102929.13;;;8.94;90.58
23241;BME280;11789;53.482;9.862;2023-05-19T06:08:57;102924.19;;;9.00;89.89
23241;BME280;11789;53.482;9.862;2023-05-19T06:11:23;102918.41;;;9.06;89.61
23241;BME280;11789;53.482;9.862;2023-05-19T06:13:49;102929.84;;;9.13;89.81
23241;BME280;11789;53.482;9.862;2023-05-19T06:16:14;102932.66;;;9.19;89.56
23241;BME280;11789;53.482;9.862;2023-05-19T06:18:40;102916.53;;;9.24;89.47
23241;BME280;11789;53.482;9.862;2023-05-19T06:21:05;102924.44;;;9.29;88.90
23241;BME280;11789;53.482;9.862;2023-05-19T06:23:31;102917.63;;;9.31;87.86
23241;BME280;11789;53.482;9.862;2023-05-19T06:25:56;102916.88;;;9.33;87.68
23241;BME280;11789;53.482;9.862;2023-05-19T06:28:22;102916.97;;;9.36;87.23
23241;BME280;11789;53.482;9.862;2023-05-19T06:30:47;102924.13;;;9.44;87.31
23241;BME280;11789;53.482;9.862;2023-05-19T06:33:12;102918.25;;;9.48;86.91
23241;BME280;11789;53.482;9.862;2023-05-19T06:35:38;102917.50;;;9.50;86.07
23241;BME280;11789;53.482;9.862;2023-05-19T06:38:03;102921.81;;;9.51;85.53
23241;BME280;11789;53.482;9.862;2023-05-19T06:40:29;102923.03;;;9.61;86.58
23241;BME280;11789;53.482;9.862;2023-05-19T06:42:54;102916.38;;;9.68;85.20
23241;BME280;11789;53.482;9.862;2023-05-19T06:45:20;102915.25;;;9.83;85.26
23241;BME280;11789;53.482;9.862;2023-05-19T06:47:49;102915.78;;;9.99;85.08
23241;BME280;11789;53.482;9.862;2023-05-19T06:50:15;102925.44;;;10.04;85.75
23241;BME280;11789;53.482;9.862;2023-05-19T06:52:40;102924.94;;;10.14;86.18
23241;BME280;11789;53.482;9.862;2023-05-19T06:55:06;102922.66;;;10.24;82.02
23241;BME280;11789;53.482;9.862;2023-05-19T06:57:32;102927.84;;;10.24;79.46
23241;BME280;11789;53.482;9.862;2023-05-19T06:59:58;102920.47;;;10.34;79.25
23241;BME280;11789;53.482;9.862;2023-05-19T07:02:23;102922.00;;;10.55;79.98
23241;BME280;11789;53.482;9.862;2023-05-19T07:04:48;102921.69;;;10.73;77.67
23241;BME280;11789;53.482;9.862;2023-05-19T07:07:17;102925.56;;;10.85;76.54
23241;BME280;11789;53.482;9.862;2023-05-19T07:09:42;102918.81;;;10.90;74.90
23241;BME280;11789;53.482;9.862;2023-05-19T07:12:08;102924.87;;;10.91;73.88
23241;BME280;11789;53.482;9.862;2023-05-19T07:14:34;102918.03;;;10.95;74.79
23241;BME280;11789;53.482;9.862;2023-05-19T07:17:00;102923.44;;;11.01;74.34
23241;BME280;11789;53.482;9.862;2023-05-19T07:19:26;102923.31;;;10.98;74.33
23241;BME280;11789;53.482;9.862;2023-05-19T07:21:51;102920.63;;;10.95;74.48
23241;BME280;11789;53.482;9.862;2023-05-19T07:24:17;102923.38;;;10.99;74.45
23241;BME280;11789;53.482;9.862;2023-05-19T07:26:42;102918.28;;;11.02;73.92
23241;BME280;11789;53.482;9.862;2023-05-19T07:29:08;102908.91;;;11.06;74.12
23241;BME280;11789;53.482;9.862;2023-05-19T07:31:33;102925.59;;;11.15;74.36
23241;BME280;11789;53.482;9.862;2023-05-19T07:33:58;102915.63;;;11.29;73.80
23241;BME280;11789;53.482;9.862;2023-05-19T07:36:24;102926.56;;;11.49;73.13
23241;BME280;11789;53.482;9.862;2023-05-19T07:38:49;102920.09;;;11.65;73.64
23241;BME280;11789;53.482;9.862;2023-05-19T07:41:15;102912.16;;;11.89;74.30
23241;BME280;11789;53.482;9.862;2023-05-19T07:43:41;102916.78;;;12.01;72.22
23241;BME280;11789;53.482;9.862;2023-05-19T07:46:06;102919.56;;;12.07;71.40
23241;BME280;11789;53.482;9.862;2023-05-19T07:48:31;102923.16;;;12.12;70.95
23241;BME280;11789;53.482;9.862;2023-05-19T07:50:57;102918.00;;;12.13;70.29
23241;BME280;11789;53.482;9.862;2023-05-19T07:53:22;102914.66;;;12.17;70.82
23241;BME280;11789;53.482;9.862;2023-05-19T07:55:48;102917.25;;;12.17;70.61
23241;BME280;11789;53.482;9.862;2023-05-19T07:58:14;102918.22;;;12.23;70.90
23241;BME280;11789;53.482;9.862;2023-05-19T08:00:40;102910.47;;;12.24;70.62
23241;BME280;11789;53.482;9.862;2023-05-19T08:03:08;102916.75;;;12.32;70.58
23241;BME280;11789;53.482;9.862;2023-05-19T08:05:34;102912.72;;;12.45;70.19
23241;BME280;11789;53.482;9.862;2023-05-19T08:08:00;102904.28;;;12.54;68.45
23241;BME280;11789;53.482;9.862;2023-05-19T08:10:26;102906.31;;;12.67;68.83
23241;BME280;11789;53.482;9.862;2023-05-19T08:12:51;102906.62;;;12.81;68.34
23241;BME280;11789;53.482;9.862;2023-05-19T08:15:17;102910.94;;;12.79;67.71
23241;BME280;11789;53.482;9.862;2023-05-19T08:17:43;102908.47;;;12.85;67.19
23241;BME280;11789;53.482;9.862;2023-05-19T08:20:09;102901.91;;;13.01;65.89
23241;BME280;11789;53.482;9.862;2023-05-19T08:22:35;102901.88;;;12.99;65.96
23241;BME280;11789;53.482;9.862;2023-05-19T08:25:01;102904.78;;;13.14;66.66
23241;BME280;11789;53.482;9.862;2023-05-19T08:27:27;102902.19;;;13.14;65.17
23241;BME280;11789;53.482;9.862;2023-05-19T08:29:54;102899.84;;;13.23;65.83
23241;BME280;11789;53.482;9.862;2023-05-19T08:32:20;102893.12;;;13.35;65.46
23241;BME280;11789;53.482;9.862;2023-05-19T08:34:45;102899.50;;;13.50;64.91
23241;BME280;11789;53.482;9.862;2023-05-19T08:37:11;102893.56;;;13.56;65.05
23241;BME280;11789;53.482;9.862;2023-05-19T08:39:36;102891.13;;;13.64;64.75
23241;BME280;11789;53.482;9.862;2023-05-19T08:42:01;102888.44;;;13.59;63.70
23241;BME280;11789;53.482;9.862;2023-05-19T08:44:27;102882.31;;;13.57;65.20
23241;BME280;11789;53.482;9.862;2023-05-19T08:46:54;102880.47;;;13.52;63.77
23241;BME280;11789;53.482;9.862;2023-05-19T08:49:25;102877.69;;;13.42;64.24
23241;BME280;11789;53.482;9.862;2023-05-19T08:52:23;102884.59;;;13.42;63.78
23241;BME280;11789;53.482;9.862;2023-05-19T08:54:52;102876.12;;;13.52;63.47
23241;BME280;11789;53.482;9.862;2023-05-19T08:57:21;102882.66;;;13.75;63.14
23241;BME280;11789;53.482;9.862;2023-05-19T08:59:49;102880.06;;;13.77;61.27
23241;BME280;11789;53.482;9.862;2023-05-19T09:02:15;102869.63;;;13.74;61.44
23241;BME280;11789;53.482;9.862;2023-05-19T09:04:42;102876.69;;;13.81;61.00
23241;BME280;11789;53.482;9.862;2023-05-19T09:07:12;102874.97;;;13.82;61.28
23241;BME280;11789;53.482;9.862;2023-05-19T09:09:37;102868.97;;;13.84;60.81
23241;BME280;11789;53.482;9.862;2023-05-19T09:12:07;102871.69;;;13.92;61.72
23241;BME280;11789;53.482;9.862;2023-05-19T09:14:32;102864.84;;;13.97;60.22
23241;BME280;11789;53.482;9.862;2023-05-19T09:16:59;102865.09;;;14.12;60.13
23241;BME280;11789;53.482;9.862;2023-05-19T09:19:27;102864.28;;;14.16;60.12
23241;BME280;11789;53.482;9.862;2023-05-19T09:22:00;102859.19;;;14.24;60.09
23241;BME280;11789;53.482;9.862;2023-05-19T09:24:27;102864.69;;;14.41;58.35
23241;BME280;11789;53.482;9.862;2023-05-19T09:26:56;102856.00;;;14.40;58.39
23241;BME280;11789;53.482;9.862;2023-05-19T09:29:22;102860.28;;;14.37;58.57
23241;BME280;11789;53.482;9.862;2023-05-19T09:31:54;102854.22;;;14.38;58.56
23241;BME280;11789;53.482;9.862;2023-05-19T09:34:24;102858.75;;;14.48;58.57
23241;BME280;11789;53.482;9.862;2023-05-19T09:36:52;102847.53;;;14.50;56.79
23241;BME280;11789;53.482;9.862;2023-05-19T09:39:19;102840.59;;;14.52;57.23
23241;BME280;11789;53.482;9.862;2023-05-19T09:41:45;102850.28;;;14.61;56.95
23241;BME280;11789;53.482;9.862;2023-05-19T09:46:52;102840.94;;;14.77;56.50
23241;BME280;11789;53.482;9.862;2023-05-19T09:49:28;102837.63;;;14.87;55.32
23241;BME280;11789;53.482;9.862;2023-05-19T09:52:00;102835.12;;;14.98;55.25
23241;BME280;11789;53.482;9.862;2023-05-19T09:54:27;102836.13;;;15.06;54.91
23241;BME280;11789;53.482;9.862;2023-05-19T09:57:01;102836.03;;;15.00;54.22
23241;BME280;11789;53.482;9.862;2023-05-19T09:59:28;102839.59;;;15.08;54.95
23241;BME280;11789;53.482;9.862;2023-05-19T10:01:56;102835.38;;;15.19;54.43
23241;BME280;11789;53.482;9.862;2023-05-19T10:04:22;102828.38;;;15.12;52.95
23241;BME280;11789;53.482;9.862;2023-05-19T10:06:52;102825.72;;;15.08;52.78
23241;BME280;11789;53.482;9.862;2023-05-19T10:09:26;102825.66;;;15.03;53.46
23241;BME280;11789;53.482;9.862;2023-05-19T10:11:53;102817.91;;;15.08;52.00
23241;BME280;11789;53.482;9.862;2023-05-19T10:14:23;102816.22;;;15.14;52.09
23241;BME280;11789;53.482;9.862;2023-05-19T10:16:53;102805.75;;;15.10;51.86
23241;BME280;11789;53.482;9.862;2023-05-19T10:19:23;102811.16;;;15.26;52.67
23241;BME280;11789;53.482;9.862;2023-05-19T10:21:49;102802.53;;;15.32;51.45
23241;BME280;11789;53.482;9.862;2023-05-19T10:24:16;102817.41;;;15.42;51.23
23241;BME280;11789;53.482;9.862;2023-05-19T10:27:02;102813.84;;;15.32;50.29
23241;BME280;11789;53.482;9.862;2023-05-19T10:29:32;102807.69;;;15.27;50.65
23241;BME280;11789;53.482;9.862;2023-05-19T10:32:05;102806.88;;;15.31;51.58
23241;BME280;11789;53.482;9.862;2023-05-19T10:40:28;102799.13;;;15.38;51.02
23241;BME280;11789;53.482;9.862;2023-05-19T10:43:05;102800.91;;;15.45;50.89
23241;BME280;11789;53.482;9.862;2023-05-19T10:45:52;102804.44;;;15.50;50.87
23241;BME280;11789;53.482;9.862;2023-05-19T10:48:20;102807.03;;;15.47;51.07
23241;BME280;11789;53.482;9.862;2023-05-19T10:50:47;102802.66;;;15.43;51.20
23241;BME280;11789;53.482;9.862;2023-05-19T10:53:15;102796.47;;;15.33;51.05
23241;BME280;11789;53.482;9.862;2023-05-19T10:58:13;102791.31;;;15.39;49.68
23241;BME280;11789;53.482;9.862;2023-05-19T11:00:38;102791.31;;;15.41;49.94
23241;BME280;11789;53.482;9.862;2023-05-19T11:03:15;102790.50;;;15.45;49.76
23241;BME280;11789;53.482;9.862;2023-05-19T11:05:42;102785.31;;;15.48;49.86
23241;BME280;11789;53.482;9.862;2023-05-19T11:08:10;102790.59;;;15.54;47.39
23241;BME280;11789;53.482;9.862;2023-05-19T11:10:36;102790.53;;;15.51;46.45
23241;BME280;11789;53.482;9.862;2023-05-19T11:13:03;102781.03;;;15.54;49.89
23241;BME280;11789;53.482;9.862;2023-05-19T11:15:33;102779.37;;;15.63;49.18
23241;BME280;11789;53.482;9.862;2023-05-19T11:18:00;102782.06;;;15.67;49.16
23241;BME280;11789;53.482;9.862;2023-05-19T11:20:27;102769.03;;;15.67;48.93
23241;BME280;11789;53.482;9.862;2023-05-19T11:25:47;102771.72;;;15.81;48.47
23241;BME280;11789;53.482;9.862;2023-05-19T11:28:21;102768.25;;;15.79;48.96
23241;BME280;11789;53.482;9.862;2023-05-19T11:30:56;102767.34;;;15.74;49.89
23241;BME280;11789;53.482;9.862;2023-05-19T11:33:24;102756.81;;;15.63;49.35
23241;BME280;11789;53.482;9.862;2023-05-19T11:35:56;102758.47;;;15.56;49.94
23241;BME280;11789;53.482;9.862;2023-05-19T11:38:22;102758.47;;;15.61;49.82
23241;BME280;11789;53.482;9.862;2023-05-19T11:40:48;102759.59;;;15.83;48.57
23241;BME280;11789;53.482;9.862;2023-05-19T11:43:16;102749.25;;;16.00;46.26
23241;BME280;11789;53.482;9.862;2023-05-19T11:45:42;102759.63;;;15.91;46.11
23241;BME280;11789;53.482;9.862;2023-05-19T11:48:11;102768.28;;;15.85;46.93
23241;BME280;11789;53.482;9.862;2023-05-19T11:50:39;102758.69;;;15.79;47.88
23241;BME280;11789;53.482;9.862;2023-05-19T11:53:05;102758.66;;;15.75;48.09
23241;BME280;11789;53.482;9.862;2023-05-19T11:55:31;102756.06;;;15.78;47.58
23241;BME280;11789;53.482;9.862;2023-05-19T11:57:57;102754.53;;;16.03;46.02
23241;BME280;11789;53.482;9.862;2023-05-19T12:00:24;102759.97;;;16.38;45.26
23241;BME280;11789;53.482;9.862;2023-05-19T12:02:49;102758.22;;;16.42;44.97
23241;BME280;11789;53.482;9.862;2023-05-19T12:05:20;102751.22;;;16.36;44.81
23241;BME280;11789;53.482;9.862;2023-05-19T12:07:47;102753.88;;;16.41;45.75
23241;BME280;11789;53.482;9.862;2023-05-19T12:10:37;102753.88;;;16.44;44.51
23241;BME280;11789;53.482;9.862;2023-05-19T12:13:04;102755.63;;;16.45;44.00
23241;BME280;11789;53.482;9.862;2023-05-19T12:15:32;102752.13;;;16.40;44.85
23241;BME280;11789;53.482;9.862;2023-05-19T12:17:59;102745.09;;;16.29;45.60
23241;BME280;11789;53.482;9.862;2023-05-19T12:20:26;102747.69;;;16.25;45.90
23241;BME280;11789;53.482;9.862;2023-05-19T12:22:54;102745.06;;;16.19;46.01
23241;BME280;11789;53.482;9.862;2023-05-19T12:25:20;102737.12;;;16.06;46.03
23241;BME280;11789;53.482;9.862;2023-05-19T12:27:46;102727.56;;;16.02;45.16
23241;BME280;11789;53.482;9.862;2023-05-19T12:30:15;102726.69;;;16.02;45.11
23241;BME280;11789;53.482;9.862;2023-05-19T12:32:41;102729.38;;;16.20;44.50
23241;BME280;11789;53.482;9.862;2023-05-19T12:35:08;102719.84;;;16.25;44.19
23241;BME280;11789;53.482;9.862;2023-05-19T12:37:35;102723.31;;;16.21;45.12
23241;BME280;11789;53.482;9.862;2023-05-19T12:40:02;102725.03;;;16.21;45.24
23241;BME280;11789;53.482;9.862;2023-05-19T12:42:29;102718.97;;;16.26;45.27
23241;BME280;11789;53.482;9.862;2023-05-19T12:44:57;102717.31;;;16.41;45.33
23241;BME280;11789;53.482;9.862;2023-05-19T12:47:31;102720.00;;;16.62;44.49
23241;BME280;11789;53.482;9.862;2023-05-19T12:50:03;102720.06;;;16.68;42.98
23241;BME280;11789;53.482;9.862;2023-05-19T12:52:30;102715.66;;;16.55;44.01
23241;BME280;11789;53.482;9.862;2023-05-19T12:55:01;102709.50;;;16.44;44.37
23241;BME280;11789;53.482;9.862;2023-05-19T12:57:29;102713.84;;;16.42;45.48
23241;BME280;11789;53.482;9.862;2023-05-19T13:05:23;102713.81;;;16.32;46.79
23241;BME280;11789;53.482;9.862;2023-05-19T13:08:15;102712.97;;;16.38;46.89
23241;BME280;11789;53.482;9.862;2023-05-19T13:10:43;102708.69;;;16.55;46.82
23241;BME280;11789;53.482;9.862;2023-05-19T13:13:10;102701.72;;;16.53;44.59
23241;BME280;11789;53.482;9.862;2023-05-19T13:15:37;102702.62;;;16.64;45.09
23241;BME280;11789;53.482;9.862;2023-05-19T13:18:05;102698.34;;;16.74;44.84
23241;BME280;11789;53.482;9.862;2023-05-19T13:20:31;102703.59;;;16.87;44.04
23241;BME280;11789;53.482;9.862;2023-05-19T13:23:00;102705.31;;;16.79;45.37
23241;BME280;11789;53.482;9.862;2023-05-19T13:25:26;102708.75;;;16.72;45.35
23241;BME280;11789;53.482;9.862;2023-05-19T13:27:52;102701.75;;;16.57;44.94
23241;BME280;11789;53.482;9.862;2023-05-19T13:30:19;102703.44;;;16.49;45.94
23241;BME280;11789;53.482;9.862;2023-05-19T13:32:45;102707.78;;;16.49;45.86
23241;BME280;11789;53.482;9.862;2023-05-19T13:35:12;102703.44;;;16.57;46.38